createdAt,value
2018-09-26T21:32:50.241Z,1007.33
2018-09-26T21:33:50.099Z,1007.27
2018-09-26T21:35:43.019Z,1007.26
2018-09-26T21:36:43.033Z,1007.22
2018-09-26T21:38:36.230Z,1007.19
2018-09-26T21:39:35.966Z,1007.21
2018-09-26T21:41:28.897Z,1007.11
2018-09-26T21:42:28.914Z,1007.13
2018-09-26T21:44:21.956Z,1007.11
2018-09-26T21:45:21.827Z,1007.12
2018-09-26T21:47:14.810Z,1007.15
2018-09-26T21:49:27.911Z,1007.09
2018-09-26T21:50:27.826Z,1007.07
2018-09-26T21:52:20.743Z,1007.00
2018-09-26T21:53:20.855Z,1007.00
2018-09-26T21:55:14.003Z,1006.98
2018-09-26T21:56:13.756Z,1006.99
2018-09-26T21:58:06.676Z,1007.00
2018-09-26T21:59:06.691Z,1007.04
2018-09-26T22:00:59.730Z,1007.06
2018-09-26T22:01:59.629Z,1007.14
2018-09-26T22:03:52.619Z,1007.14
2018-09-26T22:04:52.554Z,1007.17
2018-09-26T22:06:45.623Z,1007.28
2018-09-26T22:07:45.490Z,1007.32
2018-09-26T22:09:38.990Z,1007.29
2018-09-26T22:10:38.437Z,1007.26
2018-09-26T22:12:31.475Z,1007.27
2018-09-26T22:13:31.363Z,1007.28
2018-09-26T22:15:24.334Z,1007.25
2018-09-26T22:16:24.310Z,1007.22
2018-09-26T22:18:17.497Z,1007.27
2018-09-26T22:19:17.242Z,1007.27
2018-09-26T22:21:10.082Z,1007.33
2018-09-26T22:22:10.099Z,1007.39
2018-09-26T22:24:03.312Z,1007.43
2018-09-26T22:25:03.077Z,1007.46
2018-09-26T22:26:55.958Z,1007.48
2018-09-26T22:27:55.977Z,1007.48
2018-09-26T22:29:49.225Z,1007.50
2018-09-26T22:30:48.916Z,1007.52
2018-09-26T22:32:41.828Z,1007.60
2018-09-26T22:33:41.844Z,1007.64
2018-09-26T22:35:35.070Z,1007.79
2018-09-26T22:36:34.797Z,1007.85
2018-09-26T22:38:27.706Z,1007.93
2018-09-26T22:39:27.720Z,1007.97
2018-09-26T22:41:20.895Z,1007.99
2018-09-26T22:42:20.655Z,1008.01
2018-09-26T22:44:13.572Z,1007.98
2018-09-26T22:45:13.594Z,1007.96
2018-09-26T22:47:06.768Z,1007.90
2018-09-26T22:48:06.523Z,1007.91
2018-09-26T22:49:59.468Z,1007.85
2018-09-26T22:50:59.466Z,1007.84
2018-09-26T22:52:52.432Z,1007.90
2018-09-26T22:53:52.393Z,1007.90
2018-09-26T22:55:45.312Z,1007.96
2018-09-26T22:56:45.337Z,1007.93
2018-09-26T22:58:38.515Z,1007.90
2018-09-26T22:59:38.278Z,1007.80
2018-09-26T23:01:31.180Z,1007.79
2018-09-26T23:02:31.195Z,1007.79
2018-09-26T23:04:24.463Z,1007.86
2018-09-26T23:05:24.176Z,1007.91
2018-09-26T23:07:17.167Z,1007.98
2018-09-26T23:08:17.110Z,1008.02
2018-09-26T23:10:10.327Z,1008.06
2018-09-26T23:11:10.041Z,1008.04
2018-09-26T23:13:02.968Z,1008.08
2018-09-26T23:14:02.985Z,1008.06
2018-09-26T23:15:56.238Z,1008.01
2018-09-26T23:16:55.950Z,1008.06
2018-09-26T23:18:48.895Z,1008.09
2018-09-26T23:19:48.924Z,1008.13
2018-09-26T23:21:42.088Z,1008.16
2018-09-26T23:22:41.868Z,1008.21
2018-09-26T23:24:34.788Z,1008.25
2018-09-26T23:25:34.780Z,1008.29
2018-09-26T23:27:27.969Z,1008.40
2018-09-26T23:28:27.731Z,1008.47
2018-09-26T23:30:20.649Z,1008.57
2018-09-26T23:31:20.658Z,1008.60
2018-09-26T23:33:13.829Z,1008.71
2018-09-26T23:34:13.609Z,1008.68
2018-09-26T23:36:06.483Z,1008.75
2018-09-26T23:37:06.501Z,1008.76
2018-09-26T23:39:00.751Z,1008.76
2018-09-26T23:39:59.433Z,1008.73
2018-09-26T23:41:52.545Z,1008.74
2018-09-26T23:42:52.585Z,1008.77
2018-09-26T23:44:45.751Z,1008.78
2018-09-26T23:45:45.509Z,1008.80
2018-09-26T23:47:38.449Z,1008.85
2018-09-26T23:48:38.446Z,1008.86
2018-09-26T23:50:31.680Z,1008.90
2018-09-26T23:51:31.396Z,1008.90
2018-09-26T23:53:24.316Z,1008.90
2018-09-26T23:54:24.318Z,1008.88
2018-09-26T23:56:17.508Z,1008.81
2018-09-26T23:57:17.261Z,1008.82
2018-09-26T23:59:10.156Z,1008.71
